sensor_id;sensor_type;location;lat;lon;timestamp;P1;durP1;ratioP1;P2;durP2;ratioP2
53207;SDS011;39093;52.788;6.940;2022-07-23T00:00:19;5.95;;;1.35;;
53207;SDS011;39093;52.788;6.940;2022-07-23T00:02:47;6.05;;;1.15;;
53207;SDS011;39093;52.788;6.940;2022-07-23T00:05:14;4.63;;;1.20;;
53207;SDS011;39093;52.788;6.940;2022-07-23T00:07:41;2.90;;;1.20;;
53207;SDS011;39093;52.788;6.940;2022-07-23T00:10:08;6.10;;;1.40;;
53207;SDS011;39093;52.788;6.940;2022-07-23T00:12:38;2.45;;;1.30;;
53207;SDS011;39093;52.788;6.940;2022-07-23T00:15:17;4.75;;;1.70;;
53207;SDS011;39093;52.788;6.940;2022-07-23T00:17:44;5.03;;;1.45;;
53207;SDS011;39093;52.788;6.940;2022-07-23T00:20:12;4.82;;;1.17;;
53207;SDS011;39093;52.788;6.940;2022-07-23T00:22:47;5.60;;;1.70;;
53207;SDS011;39093;52.788;6.940;2022-07-23T00:25:18;6.20;;;1.83;;
53207;SDS011;39093;52.788;6.940;2022-07-23T00:27:55;2.72;;;1.20;;
53207;SDS011;39093;52.788;6.940;2022-07-23T00:30:23;3.38;;;1.25;;
53207;SDS011;39093;52.788;6.940;2022-07-23T00:32:51;4.47;;;1.50;;
53207;SDS011;39093;52.788;6.940;2022-07-23T00:35:23;3.97;;;1.17;;
53207;SDS011;39093;52.788;6.940;2022-07-23T00:37:52;4.00;;;0.93;;
53207;SDS011;39093;52.788;6.940;2022-07-23T00:40:20;4.53;;;1.35;;
53207;SDS011;39093;52.788;6.940;2022-07-23T00:42:50;6.28;;;1.25;;
53207;SDS011;39093;52.788;6.940;2022-07-23T00:45:17;2.33;;;1.15;;
53207;SDS011;39093;52.788;6.940;2022-07-23T00:47:44;3.63;;;1.10;;
53207;SDS011;39093;52.788;6.940;2022-07-23T00:50:11;4.57;;;1.25;;
53207;SDS011;39093;52.788;6.940;2022-07-23T00:52:39;6.00;;;1.40;;
53207;SDS011;39093;52.788;6.940;2022-07-23T00:55:07;2.72;;;1.10;;
53207;SDS011;39093;52.788;6.940;2022-07-23T00:57:35;1.70;;;1.00;;
53207;SDS011;39093;52.788;6.940;2022-07-23T01:00:03;3.72;;;1.50;;
53207;SDS011;39093;52.788;6.940;2022-07-23T01:02:31;7.15;;;1.42;;
53207;SDS011;39093;52.788;6.940;2022-07-23T01:04:58;3.47;;;1.02;;
53207;SDS011;39093;52.788;6.940;2022-07-23T01:07:25;2.85;;;1.10;;
53207;SDS011;39093;52.788;6.940;2022-07-23T01:09:52;2.97;;;1.38;;
53207;SDS011;39093;52.788;6.940;2022-07-23T01:12:20;3.67;;;1.60;;
53207;SDS011;39093;52.788;6.940;2022-07-23T01:14:57;2.25;;;1.42;;
53207;SDS011;39093;52.788;6.940;2022-07-23T01:17:25;4.80;;;1.60;;
53207;SDS011;39093;52.788;6.940;2022-07-23T01:19:53;1.10;;;1.00;;
53207;SDS011;39093;52.788;6.940;2022-07-23T01:22:20;3.17;;;1.50;;
53207;SDS011;39093;52.788;6.940;2022-07-23T01:24:47;2.20;;;1.27;;
53207;SDS011;39093;52.788;6.940;2022-07-23T01:27:14;4.70;;;2.35;;
53207;SDS011;39093;52.788;6.940;2022-07-23T01:29:41;3.05;;;1.90;;
53207;SDS011;39093;52.788;6.940;2022-07-23T01:32:07;10.63;;;1.67;;
53207;SDS011;39093;52.788;6.940;2022-07-23T01:34:34;5.38;;;2.05;;
53207;SDS011;39093;52.788;6.940;2022-07-23T01:37:01;4.97;;;1.60;;
53207;SDS011;39093;52.788;6.940;2022-07-23T01:39:28;2.20;;;1.60;;
53207;SDS011;39093;52.788;6.940;2022-07-23T01:41:55;6.28;;;1.80;;
53207;SDS011;39093;52.788;6.940;2022-07-23T01:44:22;4.00;;;1.65;;
53207;SDS011;39093;52.788;6.940;2022-07-23T01:46:49;3.15;;;2.20;;
53207;SDS011;39093;52.788;6.940;2022-07-23T01:49:16;10.88;;;2.17;;
53207;SDS011;39093;52.788;6.940;2022-07-23T01:51:43;6.05;;;2.35;;
53207;SDS011;39093;52.788;6.940;2022-07-23T01:54:30;3.97;;;2.00;;
53207;SDS011;39093;52.788;6.940;2022-07-23T01:56:58;4.75;;;2.30;;
53207;SDS011;39093;52.788;6.940;2022-07-23T01:59:26;4.45;;;1.80;;
53207;SDS011;39093;52.788;6.940;2022-07-23T02:01:54;4.18;;;2.72;;
53207;SDS011;39093;52.788;6.940;2022-07-23T02:04:21;7.40;;;2.40;;
53207;SDS011;39093;52.788;6.940;2022-07-23T02:06:49;11.43;;;3.90;;
53207;SDS011;39093;52.788;6.940;2022-07-23T02:09:17;7.30;;;2.47;;
53207;SDS011;39093;52.788;6.940;2022-07-23T02:11:44;4.18;;;2.20;;
53207;SDS011;39093;52.788;6.940;2022-07-23T02:14:11;6.05;;;3.55;;
53207;SDS011;39093;52.788;6.940;2022-07-23T02:16:38;7.88;;;3.10;;
53207;SDS011;39093;52.788;6.940;2022-07-23T02:19:05;8.88;;;2.58;;
53207;SDS011;39093;52.788;6.940;2022-07-23T02:21:32;5.05;;;2.50;;
53207;SDS011;39093;52.788;6.940;2022-07-23T02:23:59;3.70;;;2.45;;
53207;SDS011;39093;52.788;6.940;2022-07-23T02:26:26;4.28;;;2.30;;
53207;SDS011;39093;52.788;6.940;2022-07-23T02:28:53;5.55;;;2.70;;
53207;SDS011;39093;52.788;6.940;2022-07-23T02:31:20;4.38;;;2.13;;
53207;SDS011;39093;52.788;6.940;2022-07-23T02:33:47;5.57;;;2.45;;
53207;SDS011;39093;52.788;6.940;2022-07-23T02:36:14;3.40;;;2.22;;
53207;SDS011;39093;52.788;6.940;2022-07-23T02:38:41;3.42;;;2.22;;
53207;SDS011;39093;52.788;6.940;2022-07-23T02:41:08;8.23;;;2.50;;
53207;SDS011;39093;52.788;6.940;2022-07-23T02:43:35;4.18;;;2.70;;
53207;SDS011;39093;52.788;6.940;2022-07-23T02:46:02;3.92;;;2.72;;
53207;SDS011;39093;52.788;6.940;2022-07-23T02:48:29;7.70;;;2.63;;
53207;SDS011;39093;52.788;6.940;2022-07-23T02:50:56;6.10;;;2.55;;
53207;SDS011;39093;52.788;6.940;2022-07-23T02:53:23;3.95;;;2.90;;
53207;SDS011;39093;52.788;6.940;2022-07-23T02:55:50;4.43;;;2.50;;
53207;SDS011;39093;52.788;6.940;2022-07-23T02:58:17;3.40;;;2.38;;
53207;SDS011;39093;52.788;6.940;2022-07-23T03:00:44;9.73;;;2.78;;
53207;SDS011;39093;52.788;6.940;2022-07-23T03:03:11;4.13;;;2.60;;
53207;SDS011;39093;52.788;6.940;2022-07-23T03:05:38;5.55;;;2.47;;
53207;SDS011;39093;52.788;6.940;2022-07-23T03:08:05;7.28;;;2.72;;
53207;SDS011;39093;52.788;6.940;2022-07-23T03:10:32;8.27;;;2.55;;
53207;SDS011;39093;52.788;6.940;2022-07-23T03:12:59;3.30;;;2.22;;
53207;SDS011;39093;52.788;6.940;2022-07-23T03:15:26;4.90;;;2.42;;
53207;SDS011;39093;52.788;6.940;2022-07-23T03:17:53;5.20;;;2.40;;
53207;SDS011;39093;52.788;6.940;2022-07-23T03:20:19;3.75;;;2.35;;
53207;SDS011;39093;52.788;6.940;2022-07-23T03:22:46;4.07;;;2.45;;
53207;SDS011;39093;52.788;6.940;2022-07-23T03:25:13;6.18;;;2.92;;
53207;SDS011;39093;52.788;6.940;2022-07-23T03:27:40;7.10;;;2.83;;
53207;SDS011;39093;52.788;6.940;2022-07-23T03:30:07;4.07;;;2.78;;
53207;SDS011;39093;52.788;6.940;2022-07-23T03:32:34;3.00;;;2.65;;
53207;SDS011;39093;52.788;6.940;2022-07-23T03:35:01;4.90;;;2.42;;
53207;SDS011;39093;52.788;6.940;2022-07-23T03:37:28;6.93;;;2.90;;
53207;SDS011;39093;52.788;6.940;2022-07-23T03:39:55;5.75;;;2.40;;
53207;SDS011;39093;52.788;6.940;2022-07-23T03:42:22;4.05;;;2.80;;
53207;SDS011;39093;52.788;6.940;2022-07-23T03:44:49;7.10;;;2.70;;
53207;SDS011;39093;52.788;6.940;2022-07-23T03:47:16;6.20;;;2.75;;
53207;SDS011;39093;52.788;6.940;2022-07-23T03:49:43;3.97;;;2.95;;
53207;SDS011;39093;52.788;6.940;2022-07-23T03:52:10;5.85;;;2.70;;
53207;SDS011;39093;52.788;6.940;2022-07-23T03:54:37;8.68;;;2.30;;
53207;SDS011;39093;52.788;6.940;2022-07-23T03:57:04;5.57;;;2.60;;
53207;SDS011;39093;52.788;6.940;2022-07-23T03:59:31;5.63;;;2.45;;
53207;SDS011;39093;52.788;6.940;2022-07-23T04:01:58;6.53;;;2.38;;
53207;SDS011;39093;52.788;6.940;2022-07-23T04:04:25;6.63;;;2.45;;
53207;SDS011;39093;52.788;6.940;2022-07-23T04:06:52;8.88;;;2.70;;
53207;SDS011;39093;52.788;6.940;2022-07-23T04:09:19;6.15;;;2.95;;
53207;SDS011;39093;52.788;6.940;2022-07-23T04:11:46;6.78;;;3.72;;
53207;SDS011;39093;52.788;6.940;2022-07-23T04:14:13;8.00;;;3.22;;
53207;SDS011;39093;52.788;6.940;2022-07-23T04:16:40;8.80;;;3.25;;
53207;SDS011;39093;52.788;6.940;2022-07-23T04:19:06;7.70;;;3.50;;
53207;SDS011;39093;52.788;6.940;2022-07-23T04:21:33;3.30;;;3.00;;
53207;SDS011;39093;52.788;6.940;2022-07-23T04:24:00;5.47;;;3.15;;
53207;SDS011;39093;52.788;6.940;2022-07-23T04:26:27;6.88;;;3.22;;
53207;SDS011;39093;52.788;6.940;2022-07-23T04:28:54;5.80;;;3.45;;
53207;SDS011;39093;52.788;6.940;2022-07-23T04:31:21;5.70;;;4.05;;
53207;SDS011;39093;52.788;6.940;2022-07-23T04:33:48;7.43;;;3.50;;
53207;SDS011;39093;52.788;6.940;2022-07-23T04:36:15;11.20;;;4.25;;
53207;SDS011;39093;52.788;6.940;2022-07-23T04:38:42;8.18;;;3.55;;
53207;SDS011;39093;52.788;6.940;2022-07-23T04:41:09;9.38;;;4.57;;
53207;SDS011;39093;52.788;6.940;2022-07-23T04:43:35;6.78;;;3.35;;
53207;SDS011;39093;52.788;6.940;2022-07-23T04:46:02;4.93;;;4.22;;
53207;SDS011;39093;52.788;6.940;2022-07-23T04:48:29;9.13;;;4.60;;
53207;SDS011;39093;52.788;6.940;2022-07-23T04:50:57;7.80;;;4.25;;
53207;SDS011;39093;52.788;6.940;2022-07-23T04:53:24;8.18;;;4.90;;
53207;SDS011;39093;52.788;6.940;2022-07-23T04:55:50;8.88;;;4.05;;
53207;SDS011;39093;52.788;6.940;2022-07-23T04:58:18;4.85;;;4.25;;
53207;SDS011;39093;52.788;6.940;2022-07-23T05:00:46;4.95;;;4.38;;
53207;SDS011;39093;52.788;6.940;2022-07-23T05:03:13;6.65;;;4.10;;
53207;SDS011;39093;52.788;6.940;2022-07-23T05:05:40;7.35;;;4.07;;
53207;SDS011;39093;52.788;6.940;2022-07-23T05:08:07;11.10;;;4.18;;
53207;SDS011;39093;52.788;6.940;2022-07-23T05:10:35;6.43;;;4.30;;
53207;SDS011;39093;52.788;6.940;2022-07-23T05:13:02;6.40;;;3.88;;
53207;SDS011;39093;52.788;6.940;2022-07-23T05:15:28;7.38;;;4.13;;
53207;SDS011;39093;52.788;6.940;2022-07-23T05:17:56;8.88;;;3.80;;
53207;SDS011;39093;52.788;6.940;2022-07-23T05:20:23;4.70;;;3.80;;
53207;SDS011;39093;52.788;6.940;2022-07-23T05:22:50;10.20;;;3.50;;
53207;SDS011;39093;52.788;6.940;2022-07-23T05:25:17;7.10;;;3.72;;
53207;SDS011;39093;52.788;6.940;2022-07-23T05:27:44;8.35;;;3.70;;
53207;SDS011;39093;52.788;6.940;2022-07-23T05:30:11;6.35;;;3.45;;
53207;SDS011;39093;52.788;6.940;2022-07-23T05:32:38;6.20;;;3.38;;
53207;SDS011;39093;52.788;6.940;2022-07-23T05:35:05;7.45;;;2.90;;
53207;SDS011;39093;52.788;6.940;2022-07-23T05:37:33;6.60;;;2.72;;
53207;SDS011;39093;52.788;6.940;2022-07-23T05:40:04;6.63;;;3.15;;
53207;SDS011;39093;52.788;6.940;2022-07-23T05:42:34;5.35;;;3.08;;
53207;SDS011;39093;52.788;6.940;2022-07-23T05:45:03;4.95;;;2.92;;
53207;SDS011;39093;52.788;6.940;2022-07-23T05:47:41;5.50;;;2.75;;
53207;SDS011;39093;52.788;6.940;2022-07-23T05:50:10;5.00;;;2.58;;
53207;SDS011;39093;52.788;6.940;2022-07-23T05:52:38;4.43;;;2.42;;
53207;SDS011;39093;52.788;6.940;2022-07-23T05:55:06;4.05;;;2.50;;
53207;SDS011;39093;52.788;6.940;2022-07-23T05:57:34;6.10;;;2.28;;
53207;SDS011;39093;52.788;6.940;2022-07-23T06:00:03;7.15;;;2.85;;
53207;SDS011;39093;52.788;6.940;2022-07-23T06:02:31;9.82;;;2.75;;
53207;SDS011;39093;52.788;6.940;2022-07-23T06:04:58;4.57;;;2.42;;
53207;SDS011;39093;52.788;6.940;2022-07-23T06:07:25;3.50;;;2.28;;
53207;SDS011;39093;52.788;6.940;2022-07-23T06:09:52;2.83;;;2.05;;
53207;SDS011;39093;52.788;6.940;2022-07-23T06:12:19;6.68;;;2.50;;
53207;SDS011;39093;52.788;6.940;2022-07-23T06:14:46;10.70;;;3.00;;
53207;SDS011;39093;52.788;6.940;2022-07-23T06:17:14;2.95;;;2.22;;
53207;SDS011;39093;52.788;6.940;2022-07-23T06:19:41;7.50;;;2.55;;
53207;SDS011;39093;52.788;6.940;2022-07-23T06:22:08;6.20;;;2.67;;
53207;SDS011;39093;52.788;6.940;2022-07-23T06:24:35;3.55;;;2.00;;
53207;SDS011;39093;52.788;6.940;2022-07-23T06:27:02;5.35;;;3.05;;
53207;SDS011;39093;52.788;6.940;2022-07-23T06:29:30;3.85;;;1.80;;
53207;SDS011;39093;52.788;6.940;2022-07-23T06:31:57;3.78;;;1.70;;
53207;SDS011;39093;52.788;6.940;2022-07-23T06:34:24;5.03;;;1.80;;
53207;SDS011;39093;52.788;6.940;2022-07-23T06:36:51;3.70;;;1.52;;
53207;SDS011;39093;52.788;6.940;2022-07-23T06:39:18;5.40;;;1.88;;
53207;SDS011;39093;52.788;6.940;2022-07-23T06:41:45;6.18;;;2.17;;
53207;SDS011;39093;52.788;6.940;2022-07-23T06:44:16;10.90;;;1.20;;
53207;SDS011;39093;52.788;6.940;2022-07-23T06:46:43;1.90;;;1.15;;
53207;SDS011;39093;52.788;6.940;2022-07-23T06:49:10;3.20;;;1.30;;
53207;SDS011;39093;52.788;6.940;2022-07-23T06:51:37;1.75;;;0.90;;
53207;SDS011;39093;52.788;6.940;2022-07-23T06:54:04;1.77;;;0.90;;
53207;SDS011;39093;52.788;6.940;2022-07-23T06:56:31;3.63;;;1.00;;
53207;SDS011;39093;52.788;6.940;2022-07-23T06:58:58;2.20;;;0.80;;
53207;SDS011;39093;52.788;6.940;2022-07-23T07:01:26;1.75;;;0.80;;
53207;SDS011;39093;52.788;6.940;2022-07-23T07:03:53;7.63;;;1.67;;
53207;SDS011;39093;52.788;6.940;2022-07-23T07:06:20;5.90;;;0.93;;
53207;SDS011;39093;52.788;6.940;2022-07-23T07:08:47;3.45;;;0.60;;
53207;SDS011;39093;52.788;6.940;2022-07-23T07:11:13;1.85;;;0.70;;
53207;SDS011;39093;52.788;6.940;2022-07-23T07:13:40;3.30;;;0.60;;
53207;SDS011;39093;52.788;6.940;2022-07-23T07:16:07;2.08;;;0.77;;
53207;SDS011;39093;52.788;6.940;2022-07-23T07:18:34;3.35;;;0.73;;
53207;SDS011;39093;52.788;6.940;2022-07-23T07:21:01;2.30;;;0.82;;
53207;SDS011;39093;52.788;6.940;2022-07-23T07:23:28;4.25;;;0.95;;
53207;SDS011;39093;52.788;6.940;2022-07-23T07:25:55;2.95;;;0.85;;
53207;SDS011;39093;52.788;6.940;2022-07-23T07:28:22;3.13;;;0.88;;
53207;SDS011;39093;52.788;6.940;2022-07-23T07:30:49;11.18;;;2.03;;
53207;SDS011;39093;52.788;6.940;2022-07-23T07:33:16;2.95;;;0.75;;
53207;SDS011;39093;52.788;6.940;2022-07-23T07:35:43;3.80;;;0.70;;
53207;SDS011;39093;52.788;6.940;2022-07-23T07:38:10;2.03;;;0.50;;
53207;SDS011;39093;52.788;6.940;2022-07-23T07:40:37;2.92;;;0.93;;
53207;SDS011;39093;52.788;6.940;2022-07-23T07:43:04;0.70;;;0.47;;
53207;SDS011;39093;52.788;6.940;2022-07-23T07:45:31;3.40;;;0.70;;
53207;SDS011;39093;52.788;6.940;2022-07-23T07:47:58;1.25;;;0.70;;
53207;SDS011;39093;52.788;6.940;2022-07-23T07:50:25;0.90;;;0.40;;
53207;SDS011;39093;52.788;6.940;2022-07-23T07:52:51;3.10;;;0.52;;
53207;SDS011;39093;52.788;6.940;2022-07-23T07:55:18;5.70;;;0.60;;
53207;SDS011;39093;52.788;6.940;2022-07-23T07:57:46;7.22;;;0.50;;
53207;SDS011;39093;52.788;6.940;2022-07-23T08:00:15;0.75;;;0.35;;
53207;SDS011;39093;52.788;6.940;2022-07-23T08:02:46;1.92;;;0.50;;
53207;SDS011;39093;52.788;6.940;2022-07-23T08:05:22;1.02;;;0.50;;
53207;SDS011;39093;52.788;6.940;2022-07-23T08:07:54;2.85;;;0.40;;
53207;SDS011;39093;52.788;6.940;2022-07-23T08:10:22;4.85;;;0.70;;
53207;SDS011;39093;52.788;6.940;2022-07-23T08:12:50;4.22;;;0.50;;
53207;SDS011;39093;52.788;6.940;2022-07-23T08:15:23;0.47;;;0.30;;
53207;SDS011;39093;52.788;6.940;2022-07-23T08:17:52;1.85;;;0.52;;
53207;SDS011;39093;52.788;6.940;2022-07-23T08:20:20;3.42;;;0.50;;
53207;SDS011;39093;52.788;6.940;2022-07-23T08:22:49;0.80;;;0.40;;
53207;SDS011;39093;52.788;6.940;2022-07-23T08:25:21;1.52;;;0.35;;
53207;SDS011;39093;52.788;6.940;2022-07-23T08:27:48;0.80;;;0.40;;
53207;SDS011;39093;52.788;6.940;2022-07-23T08:30:15;5.43;;;0.60;;
53207;SDS011;39093;52.788;6.940;2022-07-23T08:32:50;2.05;;;0.43;;
53207;SDS011;39093;52.788;6.940;2022-07-23T08:35:20;1.50;;;0.60;;
53207;SDS011;39093;52.788;6.940;2022-07-23T08:37:52;3.03;;;0.50;;
53207;SDS011;39093;52.788;6.940;2022-07-23T08:40:20;2.25;;;0.40;;
53207;SDS011;39093;52.788;6.940;2022-07-23T08:42:47;2.35;;;0.43;;
53207;SDS011;39093;52.788;6.940;2022-07-23T08:45:16;1.40;;;0.50;;
53207;SDS011;39093;52.788;6.940;2022-07-23T08:47:45;2.55;;;0.55;;
53207;SDS011;39093;52.788;6.940;2022-07-23T08:50:19;1.40;;;0.82;;
53207;SDS011;39093;52.788;6.940;2022-07-23T08:52:47;0.77;;;0.40;;
53207;SDS011;39093;52.788;6.940;2022-07-23T08:55:20;3.08;;;0.45;;
53207;SDS011;39093;52.788;6.940;2022-07-23T08:57:48;0.57;;;0.35;;
53207;SDS011;39093;52.788;6.940;2022-07-23T09:00:17;0.47;;;0.17;;
53207;SDS011;39093;52.788;6.940;2022-07-23T09:02:47;0.57;;;0.30;;
53207;SDS011;39093;52.788;6.940;2022-07-23T09:05:15;3.33;;;0.70;;
53207;SDS011;39093;52.788;6.940;2022-07-23T09:10:29;8.23;;;0.40;;
53207;SDS011;39093;52.788;6.940;2022-07-23T09:13:00;1.70;;;0.57;;
53207;SDS011;39093;52.788;6.940;2022-07-23T09:15:28;3.50;;;0.40;;
53207;SDS011;39093;52.788;6.940;2022-07-23T09:17:56;2.10;;;0.40;;
53207;SDS011;39093;52.788;6.940;2022-07-23T09:20:23;4.57;;;0.73;;
53207;SDS011;39093;52.788;6.940;2022-07-23T09:22:49;2.30;;;0.17;;
53207;SDS011;39093;52.788;6.940;2022-07-23T09:25:18;0.88;;;0.35;;
53207;SDS011;39093;52.788;6.940;2022-07-23T09:27:50;1.00;;;0.30;;
53207;SDS011;39093;52.788;6.940;2022-07-23T09:30:21;1.85;;;0.35;;
53207;SDS011;39093;52.788;6.940;2022-07-23T09:33:03;2.00;;;0.40;;
53207;SDS011;39093;52.788;6.940;2022-07-23T09:38:29;1.27;;;0.40;;
53207;SDS011;39093;52.788;6.940;2022-07-23T09:41:06;1.67;;;0.55;;
53207;SDS011;39093;52.788;6.940;2022-07-23T09:43:37;1.35;;;0.30;;
53207;SDS011;39093;52.788;6.940;2022-07-23T09:46:20;5.53;;;1.33;;
53207;SDS011;39093;52.788;6.940;2022-07-23T09:48:52;1.77;;;0.40;;
53207;SDS011;39093;52.788;6.940;2022-07-23T09:51:22;1.42;;;0.28;;
53207;SDS011;39093;52.788;6.940;2022-07-23T09:53:52;0.40;;;0.25;;
53207;SDS011;39093;52.788;6.940;2022-07-23T09:56:20;2.20;;;0.22;;
53207;SDS011;39093;52.788;6.940;2022-07-23T09:58:53;2.15;;;0.38;;
53207;SDS011;39093;52.788;6.940;2022-07-23T10:01:56;3.53;;;0.73;;
53207;SDS011;39093;52.788;6.940;2022-07-23T10:04:27;0.63;;;0.32;;
53207;SDS011;39093;52.788;6.940;2022-07-23T10:06:59;0.30;;;0.20;;
53207;SDS011;39093;52.788;6.940;2022-07-23T10:09:32;0.65;;;0.20;;
53207;SDS011;39093;52.788;6.940;2022-07-23T10:12:01;1.13;;;0.37;;
53207;SDS011;39093;52.788;6.940;2022-07-23T10:14:48;1.90;;;0.85;;
53207;SDS011;39093;52.788;6.940;2022-07-23T10:17:15;1.20;;;0.30;;
53207;SDS011;39093;52.788;6.940;2022-07-23T10:19:43;5.82;;;2.28;;
53207;SDS011;39093;52.788;6.940;2022-07-23T10:22:11;5.90;;;0.80;;
53207;SDS011;39093;52.788;6.940;2022-07-23T10:30:34;1.00;;;0.30;;
53207;SDS011;39093;52.788;6.940;2022-07-23T10:33:20;0.95;;;0.47;;
53207;SDS011;39093;52.788;6.940;2022-07-23T10:38:32;3.60;;;0.50;;
53207;SDS011;39093;52.788;6.940;2022-07-23T10:41:09;0.17;;;0.17;;
53207;SDS011;39093;52.788;6.940;2022-07-23T10:43:39;1.77;;;0.30;;
53207;SDS011;39093;52.788;6.940;2022-07-23T10:46:23;1.52;;;0.70;;
53207;SDS011;39093;52.788;6.940;2022-07-23T10:54:56;0.85;;;0.50;;
53207;SDS011;39093;52.788;6.940;2022-07-23T10:57:47;2.20;;;0.35;;
53207;SDS011;39093;52.788;6.940;2022-07-23T11:00:22;0.50;;;0.40;;
53207;SDS011;39093;52.788;6.940;2022-07-23T11:02:54;1.15;;;0.30;;
53207;SDS011;39093;52.788;6.940;2022-07-23T11:10:37;2.45;;;0.30;;
53207;SDS011;39093;52.788;6.940;2022-07-23T11:26:42;2.10;;;0.47;;
53207;SDS011;39093;52.788;6.940;2022-07-23T11:32:01;1.85;;;0.55;;
53207;SDS011;39093;52.788;6.940;2022-07-23T11:34:49;1.75;;;0.57;;
53207;SDS011;39093;52.788;6.940;2022-07-23T11:40:10;3.78;;;1.60;;
53207;SDS011;39093;52.788;6.940;2022-07-23T11:42:40;0.38;;;0.30;;
53207;SDS011;39093;52.788;6.940;2022-07-23T11:45:34;0.50;;;0.40;;
53207;SDS011;39093;52.788;6.940;2022-07-23T11:48:04;1.92;;;0.68;;
53207;SDS011;39093;52.788;6.940;2022-07-23T11:50:33;1.35;;;0.50;;
53207;SDS011;39093;52.788;6.940;2022-07-23T11:53:00;3.22;;;0.50;;
53207;SDS011;39093;52.788;6.940;2022-07-23T11:55:27;1.55;;;0.68;;
53207;SDS011;39093;52.788;6.940;2022-07-23T11:57:55;4.18;;;0.60;;
53207;SDS011;39093;52.788;6.940;2022-07-23T12:00:26;1.05;;;0.50;;
53207;SDS011;39093;52.788;6.940;2022-07-23T12:02:56;0.77;;;0.40;;
53207;SDS011;39093;52.788;6.940;2022-07-23T12:05:31;1.50;;;0.50;;
53207;SDS011;39093;52.788;6.940;2022-07-23T12:08:00;2.90;;;0.65;;
53207;SDS011;39093;52.788;6.940;2022-07-23T12:10:30;3.25;;;0.50;;
53207;SDS011;39093;52.788;6.940;2022-07-23T12:13:14;1.42;;;0.60;;
53207;SDS011;39093;52.788;6.940;2022-07-23T12:15:48;2.00;;;0.73;;
53207;SDS011;39093;52.788;6.940;2022-07-23T12:18:19;3.63;;;0.63;;
53207;SDS011;39093;52.788;6.940;2022-07-23T12:20:50;3.08;;;0.75;;
53207;SDS011;39093;52.788;6.940;2022-07-23T12:23:20;2.15;;;0.70;;
53207;SDS011;39093;52.788;6.940;2022-07-23T12:25:52;1.38;;;0.52;;
53207;SDS011;39093;52.788;6.940;2022-07-23T12:28:20;1.50;;;0.60;;
53207;SDS011;39093;52.788;6.940;2022-07-23T12:30:52;4.32;;;0.50;;
53207;SDS011;39093;52.788;6.940;2022-07-23T12:33:21;1.25;;;0.73;;
53207;SDS011;39093;52.788;6.940;2022-07-23T12:35:49;0.65;;;0.52;;
53207;SDS011;39093;52.788;6.940;2022-07-23T12:38:17;1.45;;;0.60;;
53207;SDS011;39093;52.788;6.940;2022-07-23T12:40:55;1.00;;;0.60;;
53207;SDS011;39093;52.788;6.940;2022-07-23T12:43:24;0.43;;;0.40;;
53207;SDS011;39093;52.788;6.940;2022-07-23T12:51:25;2.20;;;0.70;;
53207;SDS011;39093;52.788;6.940;2022-07-23T12:54:05;2.28;;;0.77;;
53207;SDS011;39093;52.788;6.940;2022-07-23T12:56:36;1.00;;;0.70;;
53207;SDS011;39093;52.788;6.940;2022-07-23T12:59:06;3.83;;;0.60;;
53207;SDS011;39093;52.788;6.940;2022-07-23T13:04:13;2.00;;;0.60;;
53207;SDS011;39093;52.788;6.940;2022-07-23T13:09:24;2.97;;;0.70;;
53207;SDS011;39093;52.788;6.940;2022-07-23T13:11:58;1.75;;;0.65;;
53207;SDS011;39093;52.788;6.940;2022-07-23T13:14:26;0.98;;;0.60;;
53207;SDS011;39093;52.788;6.940;2022-07-23T13:16:54;0.73;;;0.50;;
53207;SDS011;39093;52.788;6.940;2022-07-23T13:19:25;4.28;;;0.93;;
53207;SDS011;39093;52.788;6.940;2022-07-23T13:21:53;1.55;;;0.57;;
53207;SDS011;39093;52.788;6.940;2022-07-23T13:24:20;0.85;;;0.55;;
53207;SDS011;39093;52.788;6.940;2022-07-23T13:26:48;2.22;;;0.73;;
53207;SDS011;39093;52.788;6.940;2022-07-23T13:29:17;2.50;;;1.00;;
53207;SDS011;39093;52.788;6.940;2022-07-23T13:31:45;1.30;;;0.70;;
53207;SDS011;39093;52.788;6.940;2022-07-23T13:34:14;2.03;;;0.73;;
53207;SDS011;39093;52.788;6.940;2022-07-23T13:36:41;2.85;;;1.00;;
53207;SDS011;39093;52.788;6.940;2022-07-23T13:39:11;2.42;;;0.85;;
53207;SDS011;39093;52.788;6.940;2022-07-23T13:41:38;2.92;;;0.85;;
53207;SDS011;39093;52.788;6.940;2022-07-23T13:44:05;0.80;;;0.70;;
53207;SDS011;39093;52.788;6.940;2022-07-23T13:46:32;1.85;;;0.70;;
53207;SDS011;39093;52.788;6.940;2022-07-23T13:49:01;1.13;;;0.70;;
53207;SDS011;39093;52.788;6.940;2022-07-23T13:51:31;1.67;;;0.90;;
53207;SDS011;39093;52.788;6.940;2022-07-23T13:53:58;2.47;;;1.00;;
53207;SDS011;39093;52.788;6.940;2022-07-23T13:56:25;1.85;;;0.95;;
53207;SDS011;39093;52.788;6.940;2022-07-23T13:58:52;1.92;;;0.85;;
53207;SDS011;39093;52.788;6.940;2022-07-23T14:01:19;2.03;;;0.95;;
53207;SDS011;39093;52.788;6.940;2022-07-23T14:03:46;2.13;;;0.80;;
53207;SDS011;39093;52.788;6.940;2022-07-23T14:06:13;2.28;;;0.80;;
53207;SDS011;39093;52.788;6.940;2022-07-23T14:09:00;2.58;;;1.60;;
53207;SDS011;39093;52.788;6.940;2022-07-23T14:11:28;3.10;;;1.15;;
53207;SDS011;39093;52.788;6.940;2022-07-23T14:13:56;2.58;;;1.02;;
53207;SDS011;39093;52.788;6.940;2022-07-23T14:16:24;1.45;;;0.80;;
53207;SDS011;39093;52.788;6.940;2022-07-23T14:18:51;1.77;;;0.80;;
53207;SDS011;39093;52.788;6.940;2022-07-23T14:21:18;1.73;;;1.05;;
53207;SDS011;39093;52.788;6.940;2022-07-23T14:23:46;2.30;;;0.90;;
53207;SDS011;39093;52.788;6.940;2022-07-23T14:26:12;1.85;;;0.73;;
53207;SDS011;39093;52.788;6.940;2022-07-23T14:28:40;1.33;;;0.88;;
53207;SDS011;39093;52.788;6.940;2022-07-23T14:31:07;1.50;;;0.90;;
53207;SDS011;39093;52.788;6.940;2022-07-23T14:33:46;1.65;;;1.05;;
53207;SDS011;39093;52.788;6.940;2022-07-23T14:36:14;1.58;;;0.90;;
53207;SDS011;39093;52.788;6.940;2022-07-23T14:38:41;2.30;;;0.80;;
53207;SDS011;39093;52.788;6.940;2022-07-23T14:41:08;4.82;;;2.80;;
53207;SDS011;39093;52.788;6.940;2022-07-23T14:43:36;1.70;;;1.10;;
53207;SDS011;39093;52.788;6.940;2022-07-23T14:46:04;1.58;;;0.90;;
53207;SDS011;39093;52.788;6.940;2022-07-23T14:48:31;1.90;;;0.82;;
53207;SDS011;39093;52.788;6.940;2022-07-23T14:50:59;1.17;;;0.75;;
53207;SDS011;39093;52.788;6.940;2022-07-23T14:53:25;2.15;;;1.05;;
53207;SDS011;39093;52.788;6.940;2022-07-23T14:55:52;2.05;;;0.90;;
53207;SDS011;39093;52.788;6.940;2022-07-23T14:58:20;1.88;;;0.90;;
53207;SDS011;39093;52.788;6.940;2022-07-23T15:00:47;3.90;;;0.98;;
53207;SDS011;39093;52.788;6.940;2022-07-23T15:03:14;1.90;;;0.73;;
53207;SDS011;39093;52.788;6.940;2022-07-23T15:05:41;1.75;;;0.90;;
53207;SDS011;39093;52.788;6.940;2022-07-23T15:08:08;1.80;;;0.90;;
53207;SDS011;39093;52.788;6.940;2022-07-23T15:10:35;2.97;;;0.93;;
53207;SDS011;39093;52.788;6.940;2022-07-23T15:13:03;1.88;;;0.80;;
53207;SDS011;39093;52.788;6.940;2022-07-23T15:15:30;0.60;;;0.60;;
53207;SDS011;39093;52.788;6.940;2022-07-23T15:17:57;4.03;;;0.80;;
53207;SDS011;39093;52.788;6.940;2022-07-23T15:20:24;1.98;;;0.82;;
53207;SDS011;39093;52.788;6.940;2022-07-23T15:23:06;1.00;;;0.50;;
53207;SDS011;39093;52.788;6.940;2022-07-23T15:25:35;3.00;;;0.70;;
53207;SDS011;39093;52.788;6.940;2022-07-23T15:28:22;2.03;;;1.00;;
53207;SDS011;39093;52.788;6.940;2022-07-23T15:30:50;1.10;;;0.77;;
53207;SDS011;39093;52.788;6.940;2022-07-23T15:33:19;1.42;;;0.85;;
53207;SDS011;39093;52.788;6.940;2022-07-23T15:35:47;1.85;;;0.70;;
53207;SDS011;39093;52.788;6.940;2022-07-23T15:38:14;1.27;;;0.70;;
53207;SDS011;39093;52.788;6.940;2022-07-23T15:40:49;3.83;;;1.17;;
53207;SDS011;39093;52.788;6.940;2022-07-23T15:43:16;1.13;;;1.00;;
53207;SDS011;39093;52.788;6.940;2022-07-23T15:45:45;3.35;;;2.40;;
53207;SDS011;39093;52.788;6.940;2022-07-23T15:48:12;0.98;;;0.90;;
53207;SDS011;39093;52.788;6.940;2022-07-23T15:50:40;1.98;;;0.80;;
53207;SDS011;39093;52.788;6.940;2022-07-23T15:53:11;1.50;;;1.00;;